createdAt,value
2018-12-08T00:00:50.133Z,974.014
2018-12-08T00:02:50.301Z,974.075
2018-12-08T00:04:49.747Z,974.089
2018-12-08T00:06:50.087Z,974.080
2018-12-08T00:08:50.049Z,974.089
2018-12-08T00:10:50.006Z,974.084
2018-12-08T00:12:50.021Z,974.075
2018-12-08T00:14:50.078Z,974.083
2018-12-08T00:16:50.256Z,974.168
2018-12-08T00:18:50.257Z,974.218
2018-12-08T00:20:50.281Z,974.357
2018-12-08T00:22:50.261Z,974.407
2018-12-08T00:24:50.305Z,974.441
2018-12-08T00:26:49.641Z,974.539
2018-12-08T00:28:49.675Z,974.590
2018-12-08T00:30:49.684Z,974.659
2018-12-08T00:32:49.736Z,974.659
2018-12-08T00:34:50.161Z,974.781
2018-12-08T00:36:50.348Z,974.844
2018-12-08T00:38:50.360Z,974.855
2018-12-08T00:40:50.436Z,974.891
2018-12-08T00:42:50.503Z,974.937
2018-12-08T00:44:50.484Z,975.009
2018-12-08T00:46:49.779Z,975.089
2018-12-08T00:48:49.741Z,975.188
2018-12-08T00:50:49.881Z,975.193
2018-12-08T00:52:49.943Z,975.202
2018-12-08T00:54:50.120Z,975.206
2018-12-08T00:56:50.363Z,975.241
2018-12-08T00:58:50.423Z,975.311
2018-12-08T01:00:50.477Z,975.341
2018-12-08T01:02:50.433Z,975.359
2018-12-08T01:04:49.894Z,975.354
2018-12-08T01:06:50.135Z,975.343
2018-12-08T01:08:50.103Z,975.447
2018-12-08T01:10:50.209Z,975.480
2018-12-08T01:12:50.203Z,975.523
2018-12-08T01:14:50.309Z,975.553
2018-12-08T01:16:50.621Z,975.586
2018-12-08T01:18:49.611Z,975.590
2018-12-08T01:20:49.796Z,975.650
2018-12-08T01:22:49.838Z,975.700
2018-12-08T01:24:49.894Z,975.788
2018-12-08T01:26:50.146Z,975.813
2018-12-08T01:28:50.212Z,975.920
2018-12-08T01:30:50.360Z,975.967
2018-12-08T01:32:50.458Z,976.024
2018-12-08T01:34:49.754Z,976.074
2018-12-08T01:36:49.944Z,976.144
2018-12-08T01:38:50.186Z,976.194
2018-12-08T01:40:50.214Z,976.228
2018-12-08T01:42:50.425Z,976.236
2018-12-08T01:44:50.489Z,976.252
2018-12-08T01:46:49.765Z,976.232
2018-12-08T01:48:49.836Z,976.220
2018-12-08T01:50:49.934Z,976.195
2018-12-08T01:52:50.027Z,976.162
2018-12-08T01:54:50.090Z,976.123
2018-12-08T01:56:50.297Z,976.125
2018-12-08T01:58:50.260Z,976.137
2018-12-08T02:00:50.206Z,976.126
2018-12-08T02:02:50.119Z,976.114
2018-12-08T02:04:50.458Z,976.162
2018-12-08T02:06:49.621Z,976.218
2018-12-08T02:08:49.653Z,976.233
2018-12-08T02:10:49.749Z,976.289
2018-12-08T02:12:49.924Z,976.303
2018-12-08T02:14:50.054Z,976.292
2018-12-08T02:16:50.300Z,976.275
2018-12-08T02:18:50.420Z,976.330
2018-12-08T02:20:50.504Z,976.340
2018-12-08T02:22:49.765Z,976.366
2018-12-08T02:24:49.956Z,976.389
2018-12-08T02:26:50.498Z,976.375
2018-12-08T02:28:50.585Z,976.432
2018-12-08T02:30:49.618Z,976.467
2018-12-08T02:32:50.575Z,976.503
2018-12-08T02:34:49.920Z,976.543
2018-12-08T02:36:50.117Z,976.601
2018-12-08T02:38:50.263Z,976.640
2018-12-08T02:40:50.295Z,976.708
2018-12-08T02:42:50.423Z,976.746
2018-12-08T02:44:50.458Z,976.735
2018-12-08T02:46:50.596Z,976.782
2018-12-08T02:48:49.739Z,976.779
2018-12-08T02:50:49.777Z,976.819
2018-12-08T02:52:49.842Z,976.840
2018-12-08T02:54:49.907Z,976.857
2018-12-08T02:56:50.107Z,976.812
2018-12-08T02:58:50.151Z,976.811
2018-12-08T03:00:50.205Z,976.796
2018-12-08T03:02:50.210Z,976.852
2018-12-08T03:04:49.724Z,976.794
2018-12-08T03:06:50.079Z,976.813
2018-12-08T03:08:50.220Z,976.815
2018-12-08T03:10:50.194Z,976.825
2018-12-08T03:12:50.301Z,976.876
2018-12-08T03:14:50.319Z,976.901
2018-12-08T03:16:50.572Z,976.875
2018-12-08T03:18:49.716Z,976.894
2018-12-08T03:20:49.868Z,976.870
2018-12-08T03:22:49.946Z,976.894
2018-12-08T03:24:49.868Z,976.889
2018-12-08T03:26:50.061Z,976.895
2018-12-08T03:28:49.995Z,976.826
2018-12-08T03:30:49.989Z,976.838
2018-12-08T03:32:50.084Z,976.900
2018-12-08T03:34:50.326Z,976.926
2018-12-08T03:36:50.454Z,976.950
2018-12-08T03:38:50.472Z,976.938
2018-12-08T03:40:50.476Z,976.922
2018-12-08T03:42:50.505Z,976.918
2018-12-08T03:44:50.541Z,976.940
2018-12-08T03:46:49.809Z,976.952
2018-12-08T03:48:49.770Z,976.933
2018-12-08T03:50:49.797Z,976.938
2018-12-08T03:52:49.950Z,976.899
2018-12-08T03:54:49.931Z,976.906
2018-12-08T03:56:50.228Z,976.923
2018-12-08T03:58:50.214Z,976.953
2018-12-08T04:00:50.178Z,976.953
2018-12-08T04:02:50.171Z,976.993
2018-12-08T04:04:50.520Z,976.942
2018-12-08T04:06:49.844Z,976.956
2018-12-08T04:08:49.798Z,976.997
2018-12-08T04:10:49.899Z,977.027
2018-12-08T04:12:49.935Z,977.055
2018-12-08T04:14:49.894Z,977.085
2018-12-08T04:16:50.136Z,977.151
2018-12-08T04:18:50.113Z,977.151
2018-12-08T04:20:50.168Z,977.151
2018-12-08T04:22:50.174Z,977.131
2018-12-08T04:24:50.175Z,977.184
2018-12-08T04:26:50.629Z,977.217
2018-12-08T04:28:49.745Z,977.217
2018-12-08T04:30:49.823Z,977.191
2018-12-08T04:32:49.961Z,977.188
2018-12-08T04:34:50.213Z,977.188
2018-12-08T04:36:50.430Z,977.212
2018-12-08T04:38:50.387Z,977.212
2018-12-08T04:40:50.406Z,977.194
2018-12-08T04:42:50.393Z,977.183
2018-12-08T04:44:50.524Z,977.215
2018-12-08T04:46:49.760Z,977.139
2018-12-08T04:48:49.835Z,977.128
2018-12-08T04:50:49.907Z,977.171
2018-12-08T04:52:49.946Z,977.171
2018-12-08T04:54:50.018Z,977.187
2018-12-08T04:56:50.321Z,977.180
2018-12-08T04:58:50.396Z,977.199
2018-12-08T05:00:50.439Z,977.223
2018-12-08T05:02:50.516Z,977.228
2018-12-08T05:04:50.124Z,977.233
2018-12-08T05:06:50.379Z,977.219
2018-12-08T05:08:50.527Z,977.257
2018-12-08T05:10:49.625Z,977.241
2018-12-08T05:12:49.604Z,977.249
2018-12-08T05:14:49.639Z,977.239
2018-12-08T05:16:50.006Z,977.251
2018-12-08T05:18:49.937Z,977.269
2018-12-08T05:20:49.935Z,977.272
2018-12-08T05:22:49.899Z,977.320
2018-12-08T05:24:49.848Z,977.342
2018-12-08T05:26:50.410Z,977.356
2018-12-08T05:28:50.420Z,977.367
2018-12-08T05:30:50.473Z,977.362
2018-12-08T05:32:50.478Z,977.319
2018-12-08T05:34:49.893Z,977.334
2018-12-08T05:36:50.171Z,977.315
2018-12-08T05:38:50.242Z,977.324
2018-12-08T05:40:50.200Z,977.368
2018-12-08T05:42:50.247Z,977.417
2018-12-08T05:44:50.238Z,977.449
2018-12-08T05:46:50.461Z,977.479
2018-12-08T05:48:50.472Z,977.459
2018-12-08T05:50:50.499Z,977.459
2018-12-08T05:52:49.707Z,977.447
2018-12-08T05:54:49.806Z,977.433
2018-12-08T05:56:50.119Z,977.434
2018-12-08T05:58:50.187Z,977.527
2018-12-08T06:00:50.199Z,977.551
2018-12-08T06:02:50.234Z,977.541
2018-12-08T06:04:50.537Z,977.560
2018-12-08T06:06:49.794Z,977.580
2018-12-08T06:08:49.816Z,977.611
2018-12-08T06:10:49.868Z,977.694
2018-12-08T06:12:49.859Z,977.666
2018-12-08T06:14:49.842Z,977.669
2018-12-08T06:16:49.976Z,977.673
2018-12-08T06:18:49.971Z,977.729
2018-12-08T06:20:49.955Z,977.709
2018-12-08T06:22:49.943Z,977.724
2018-12-08T06:24:50.110Z,977.810
2018-12-08T06:26:50.383Z,977.785
2018-12-08T06:28:50.422Z,977.767
2018-12-08T06:30:50.393Z,977.744
2018-12-08T06:32:50.449Z,977.751
2018-12-08T06:34:49.719Z,977.766
2018-12-08T06:36:50.519Z,977.754
2018-12-08T06:38:50.505Z,977.749
2018-12-08T06:40:50.593Z,977.726
2018-12-08T06:42:49.628Z,977.721
2018-12-08T06:44:49.629Z,977.694
2018-12-08T06:46:49.828Z,977.692
2018-12-08T06:48:49.821Z,977.710
2018-12-08T06:50:49.799Z,977.776
2018-12-08T06:52:49.763Z,977.732
2018-12-08T06:54:49.732Z,977.738
2018-12-08T06:56:50.054Z,977.760
2018-12-08T06:58:50.150Z,977.788
2018-12-08T07:00:50.182Z,977.847
2018-12-08T07:02:50.195Z,977.883
2018-12-08T07:04:50.522Z,977.883
2018-12-08T07:06:49.954Z,977.872
2018-12-08T07:08:49.973Z,977.844
2018-12-08T07:10:49.994Z,977.872
2018-12-08T07:12:50.096Z,977.934
2018-12-08T07:14:50.108Z,977.952
2018-12-08T07:16:50.467Z,977.970
2018-12-08T07:18:49.603Z,977.938
2018-12-08T07:20:49.664Z,977.933
2018-12-08T07:22:49.785Z,977.896
2018-12-08T07:24:49.772Z,977.893
2018-12-08T07:26:49.985Z,977.914
2018-12-08T07:28:49.958Z,977.897
2018-12-08T07:30:50.172Z,977.882
2018-12-08T07:32:50.154Z,977.857
2018-12-08T07:34:50.517Z,977.867
2018-12-08T07:36:49.797Z,977.826
2018-12-08T07:38:49.785Z,977.828
2018-12-08T07:40:49.951Z,977.831
2018-12-08T07:42:50.055Z,977.815
2018-12-08T07:44:50.045Z,977.810
2018-12-08T07:46:50.409Z,977.811
2018-12-08T07:48:50.531Z,977.840
2018-12-08T07:50:49.747Z,977.848
2018-12-08T07:52:49.837Z,977.836
2018-12-08T07:54:49.998Z,977.836
2018-12-08T07:56:50.286Z,977.801
2018-12-08T07:58:50.219Z,977.802
2018-12-08T08:00:50.261Z,977.788
2018-12-08T08:02:50.257Z,977.798
2018-12-08T08:04:50.554Z,977.780
2018-12-08T08:06:49.941Z,977.755
2018-12-08T08:08:49.968Z,977.728
2018-12-08T08:10:50.005Z,977.709
2018-12-08T08:12:49.993Z,977.711
2018-12-08T08:14:49.999Z,977.723
2018-12-08T08:16:50.181Z,977.725
2018-12-08T08:18:50.362Z,977.735
2018-12-08T08:20:50.398Z,977.730
2018-12-08T08:22:50.412Z,977.704
2018-12-08T08:24:50.514Z,977.659
2018-12-08T08:26:49.800Z,977.662
2018-12-08T08:28:49.790Z,977.643
2018-12-08T08:30:49.811Z,977.626
2018-12-08T08:32:49.881Z,977.599
2018-12-08T08:34:50.224Z,977.575
2018-12-08T08:36:50.466Z,977.580
2018-12-08T08:38:49.608Z,977.522
2018-12-08T08:40:49.743Z,977.517
2018-12-08T08:42:49.802Z,977.525
2018-12-08T08:44:49.954Z,977.515
2018-12-08T08:46:50.368Z,977.460
2018-12-08T08:48:50.427Z,977.473
2018-12-08T08:50:50.452Z,977.477
2018-12-08T08:52:50.426Z,977.431
2018-12-08T08:54:50.475Z,977.428
2018-12-08T08:56:50.546Z,977.364
2018-12-08T08:58:49.622Z,977.374
2018-12-08T09:00:52.423Z,977.335
2018-12-08T09:02:50.480Z,977.329
2018-12-08T09:04:49.903Z,977.316
2018-12-08T09:06:50.099Z,977.306
2018-12-08T09:08:50.062Z,977.286
2018-12-08T09:10:50.045Z,977.291
2018-12-08T09:12:50.070Z,977.253
2018-12-08T09:14:50.060Z,977.205
2018-12-08T09:16:50.400Z,977.143
2018-12-08T09:18:50.386Z,977.132
2018-12-08T09:20:50.432Z,977.144
2018-12-08T09:22:50.403Z,977.081
2018-12-08T09:24:50.371Z,977.094
2018-12-08T09:26:50.510Z,977.069
2018-12-08T09:28:50.540Z,977.046
2018-12-08T09:30:50.583Z,977.013
2018-12-08T09:32:49.625Z,977.015
2018-12-08T09:34:50.136Z,977.023
2018-12-08T09:36:50.441Z,976.966
2018-12-08T09:38:50.435Z,976.952
2018-12-08T09:40:49.639Z,976.928
2018-12-08T09:42:49.755Z,976.909
2018-12-08T09:44:49.902Z,976.835
2018-12-08T09:46:50.193Z,976.818
2018-12-08T09:48:50.280Z,976.781
2018-12-08T09:50:50.249Z,976.765
2018-12-08T09:52:50.305Z,976.745
2018-12-08T09:54:50.448Z,976.753
2018-12-08T09:56:49.799Z,976.765
2018-12-08T09:58:49.912Z,976.759
2018-12-08T10:00:49.938Z,976.750
2018-12-08T10:02:49.961Z,976.746
2018-12-08T10:04:50.546Z,976.688
2018-12-08T10:06:49.778Z,976.674
2018-12-08T10:08:49.807Z,976.640
2018-12-08T10:10:49.892Z,976.631
2018-12-08T10:12:49.947Z,976.617
2018-12-08T10:14:49.948Z,976.608
2018-12-08T10:16:50.220Z,976.612
2018-12-08T10:18:50.247Z,976.568
2018-12-08T10:20:50.253Z,976.546
2018-12-08T10:22:50.247Z,976.480
2018-12-08T10:24:50.247Z,976.442
2018-12-08T10:26:50.374Z,976.499
2018-12-08T10:28:50.359Z,976.434
2018-12-08T10:30:50.302Z,976.446
2018-12-08T10:32:50.423Z,976.425
2018-12-08T10:34:49.743Z,976.417
2018-12-08T10:36:49.929Z,976.391
2018-12-08T10:38:50.007Z,976.348
2018-12-08T10:40:50.067Z,976.337
2018-12-08T10:42:50.067Z,976.291
2018-12-08T10:44:50.022Z,976.238
2018-12-08T10:46:50.390Z,976.218
2018-12-08T10:48:49.660Z,976.218
2018-12-08T10:50:49.813Z,976.191
2018-12-08T10:52:49.856Z,976.155
2018-12-08T10:54:49.882Z,976.111
2018-12-08T10:56:50.042Z,976.078
2018-12-08T10:58:50.035Z,976.042
2018-12-08T11:00:50.179Z,976.010
2018-12-08T11:02:50.315Z,975.992
2018-12-08T11:04:49.805Z,975.976
2018-12-08T11:06:49.978Z,975.998
2018-12-08T11:08:49.994Z,975.948
2018-12-08T11:10:49.979Z,975.978
2018-12-08T11:12:50.022Z,975.947
2018-12-08T11:14:49.955Z,975.887
2018-12-08T11:16:50.225Z,975.887
2018-12-08T11:18:50.253Z,975.852
2018-12-08T11:20:50.309Z,975.815
2018-12-08T11:22:50.295Z,975.766
2018-12-08T11:24:50.344Z,975.803
2018-12-08T11:26:50.557Z,975.814
2018-12-08T11:28:49.668Z,975.836
2018-12-08T11:30:49.694Z,975.872
2018-12-08T11:32:49.778Z,975.884
2018-12-08T11:34:50.213Z,975.915
2018-12-08T11:36:50.367Z,975.898
2018-12-08T11:38:50.498Z,975.877
2018-12-08T11:40:50.582Z,975.866
2018-12-08T11:42:49.614Z,975.841
2018-12-08T11:44:49.626Z,975.863
2018-12-08T11:46:49.768Z,975.820
2018-12-08T11:48:49.750Z,975.846
2018-12-08T11:50:49.771Z,975.838
2018-12-08T11:52:49.858Z,975.822
2018-12-08T11:54:49.950Z,975.753
2018-12-08T11:56:50.173Z,975.736
2018-12-08T11:58:50.187Z,975.680
2018-12-08T12:00:50.209Z,975.691
2018-12-08T12:02:50.333Z,975.665
2018-12-08T12:04:49.874Z,975.693
2018-12-08T12:06:50.058Z,975.658
2018-12-08T12:08:50.087Z,975.731
2018-12-08T12:10:50.163Z,975.717
2018-12-08T12:12:50.212Z,975.701
2018-12-08T12:14:50.171Z,975.697
2018-12-08T12:16:50.450Z,975.695
2018-12-08T12:18:50.528Z,975.690
2018-12-08T12:20:50.515Z,975.698
2018-12-08T12:22:49.694Z,975.692
2018-12-08T12:24:49.901Z,975.723
2018-12-08T12:26:50.223Z,975.708
2018-12-08T12:28:50.227Z,975.705
2018-12-08T12:30:50.289Z,975.760
2018-12-08T12:32:50.235Z,975.735
2018-12-08T12:34:49.633Z,975.645
2018-12-08T12:36:49.861Z,975.649
2018-12-08T12:38:49.854Z,975.624
2018-12-08T12:40:49.933Z,975.592
2018-12-08T12:42:50.225Z,975.725
2018-12-08T12:44:50.343Z,975.653
2018-12-08T12:46:49.746Z,975.729
2018-12-08T12:48:49.907Z,975.697
2018-12-08T12:50:50.142Z,975.668
2018-12-08T12:52:50.476Z,975.643
2018-12-08T12:54:49.611Z,975.648
2018-12-08T12:56:50.145Z,975.642
2018-12-08T12:58:50.298Z,975.653
2018-12-08T13:00:50.487Z,975.611
2018-12-08T13:02:50.457Z,975.654
2018-12-08T13:04:49.871Z,975.681
2018-12-08T13:06:50.031Z,975.648
2018-12-08T13:08:49.966Z,975.653
2018-12-08T13:10:49.909Z,975.646
2018-12-08T13:12:49.893Z,975.646
2018-12-08T13:14:49.987Z,975.646
2018-12-08T13:16:50.325Z,975.644
2018-12-08T13:18:50.379Z,975.646
2018-12-08T13:20:50.350Z,975.655
2018-12-08T13:22:50.491Z,975.579
2018-12-08T13:24:50.468Z,975.535
2018-12-08T13:26:49.697Z,975.502
2018-12-08T13:28:49.690Z,975.485
2018-12-08T13:30:49.890Z,975.466
2018-12-08T13:32:49.966Z,975.467
2018-12-08T13:34:50.310Z,975.467
2018-12-08T13:36:50.697Z,975.456
2018-12-08T13:38:49.771Z,975.464
2018-12-08T13:40:49.892Z,975.455
2018-12-08T13:42:49.869Z,975.465
2018-12-08T13:44:49.945Z,975.468
2018-12-08T13:46:50.124Z,975.494
2018-12-08T13:48:50.132Z,975.475
2018-12-08T13:50:50.173Z,975.439
2018-12-08T13:52:50.157Z,975.488
2018-12-08T13:54:50.213Z,975.485
2018-12-08T13:56:50.476Z,975.530
2018-12-08T13:58:50.568Z,975.554
2018-12-08T14:00:50.583Z,975.540
2018-12-08T14:02:49.682Z,975.525
2018-12-08T14:04:50.195Z,975.527
2018-12-08T14:06:50.340Z,975.533
2018-12-08T14:08:50.571Z,975.533
2018-12-08T14:10:50.707Z,975.486
2018-12-08T14:12:49.786Z,975.441
2018-12-08T14:14:49.903Z,975.433
2018-12-08T14:16:50.167Z,975.425
2018-12-08T14:18:50.268Z,975.457
2018-12-08T14:20:50.266Z,975.385
2018-12-08T14:22:50.343Z,975.393
2018-12-08T14:24:50.434Z,975.385
2018-12-08T14:26:49.627Z,975.388
2018-12-08T14:28:49.753Z,975.388
2018-12-08T14:30:49.976Z,975.383
2018-12-08T14:32:50.062Z,975.400
2018-12-08T14:34:50.512Z,975.396
2018-12-08T14:36:49.761Z,975.415
2018-12-08T14:38:58.006Z,975.420
2018-12-08T14:40:50.081Z,975.435
2018-12-08T14:42:50.141Z,975.426
2018-12-08T14:44:50.117Z,975.461
2018-12-08T14:46:50.327Z,975.458
2018-12-08T14:48:50.315Z,975.496
2018-12-08T14:50:50.358Z,975.436
2018-12-08T14:52:50.259Z,975.405
2018-12-08T14:54:50.264Z,975.431
2018-12-08T14:56:50.320Z,975.431
2018-12-08T14:58:50.315Z,975.492
2018-12-08T15:00:50.308Z,975.572
2018-12-08T15:02:50.279Z,975.625
2018-12-08T15:04:49.818Z,975.688
2018-12-08T15:06:49.851Z,975.691
2018-12-08T15:08:49.798Z,975.771
2018-12-08T15:10:49.830Z,975.756
2018-12-08T15:12:49.910Z,975.756
2018-12-08T15:14:49.883Z,975.742
2018-12-08T15:16:50.049Z,975.723
2018-12-08T15:18:50.136Z,975.685
2018-12-08T15:20:50.184Z,975.673
2018-12-08T15:22:50.221Z,975.666
2018-12-08T15:24:50.295Z,975.658
2018-12-08T15:26:49.672Z,975.634
2018-12-08T15:28:49.785Z,975.592
2018-12-08T15:30:49.831Z,975.524
2018-12-08T15:32:49.859Z,975.487
2018-12-08T15:34:50.188Z,975.488
2018-12-08T15:36:50.377Z,975.474
2018-12-08T15:38:50.446Z,975.481
2018-12-08T15:40:50.465Z,975.481
2018-12-08T15:42:50.470Z,975.483
2018-12-08T15:44:50.461Z,975.510
2018-12-08T15:46:49.652Z,975.522
2018-12-08T15:48:49.706Z,975.584
2018-12-08T15:50:49.752Z,975.571
2018-12-08T15:52:49.749Z,975.570
2018-12-08T15:54:49.850Z,975.570
2018-12-08T15:56:49.999Z,975.511
2018-12-08T15:58:49.971Z,975.508
2018-12-08T16:00:50.020Z,975.500
2018-12-08T16:02:50.036Z,975.489
2018-12-08T16:04:50.273Z,975.478
2018-12-08T16:06:50.481Z,975.515
2018-12-08T16:08:50.404Z,975.516
2018-12-08T16:10:50.400Z,975.490
2018-12-08T16:12:50.331Z,975.487
2018-12-08T16:14:50.385Z,975.464
2018-12-08T16:16:49.659Z,975.449
2018-12-08T16:18:49.604Z,975.473
2018-12-08T16:20:49.683Z,975.462
2018-12-08T16:22:49.659Z,975.465
2018-12-08T16:24:50.002Z,975.445
2018-12-08T16:26:50.204Z,975.446
2018-12-08T16:28:50.242Z,975.458
2018-12-08T16:30:50.243Z,975.445
2018-12-08T16:32:50.256Z,975.388
2018-12-08T16:34:50.410Z,975.375
2018-12-08T16:36:49.637Z,975.328
2018-12-08T16:38:49.736Z,975.312
2018-12-08T16:40:49.708Z,975.312
2018-12-08T16:42:49.721Z,975.284
2018-12-08T16:44:49.747Z,975.280
2018-12-08T16:46:49.925Z,975.268
2018-12-08T16:48:49.868Z,975.278
2018-12-08T16:50:49.809Z,975.303
2018-12-08T16:52:49.799Z,975.272
2018-12-08T16:54:50.039Z,975.250
2018-12-08T16:56:50.258Z,975.266
2018-12-08T16:58:50.329Z,975.192
2018-12-08T17:00:50.398Z,975.181
2018-12-08T17:02:50.390Z,975.163
2018-12-08T17:04:49.779Z,975.123
2018-12-08T17:06:50.039Z,975.139
2018-12-08T17:08:50.058Z,975.101
2018-12-08T17:10:50.108Z,975.077
2018-12-08T17:12:50.399Z,975.098
2018-12-08T17:14:50.467Z,975.136
2018-12-08T17:16:49.786Z,975.102
2018-12-08T17:18:49.783Z,975.078
2018-12-08T17:20:49.826Z,975.008
2018-12-08T17:22:49.911Z,974.961
2018-12-08T17:24:49.914Z,974.961
2018-12-08T17:26:50.207Z,974.961
2018-12-08T17:28:50.210Z,974.929
2018-12-08T17:30:50.271Z,974.921
2018-12-08T17:32:50.324Z,974.865
2018-12-08T17:34:50.662Z,974.874
2018-12-08T17:36:49.858Z,974.881
2018-12-08T17:38:49.878Z,974.870
2018-12-08T17:40:49.875Z,974.902
2018-12-08T17:42:49.904Z,974.893
2018-12-08T17:44:49.930Z,974.913
2018-12-08T17:46:50.038Z,974.843
2018-12-08T17:48:50.001Z,974.834
2018-12-08T17:50:49.995Z,974.810
2018-12-08T17:52:50.024Z,974.781
2018-12-08T17:54:50.055Z,974.756
2018-12-08T17:56:50.265Z,974.723
2018-12-08T17:58:50.287Z,974.702
2018-12-08T18:00:50.371Z,974.734
2018-12-08T18:02:50.327Z,974.734
2018-12-08T18:04:49.676Z,974.664
2018-12-08T18:06:50.115Z,974.716
2018-12-08T18:08:50.183Z,974.834
2018-12-08T18:10:50.193Z,974.843
2018-12-08T18:12:50.271Z,974.811
2018-12-08T18:14:50.263Z,974.773
2018-12-08T18:16:50.422Z,974.763
2018-12-08T18:18:50.458Z,974.747
2018-12-08T18:20:50.576Z,974.717
2018-12-08T18:22:50.260Z,974.701
2018-12-08T18:24:50.512Z,974.701
2018-12-08T18:26:49.889Z,974.666
2018-12-08T18:28:49.922Z,974.666
2018-12-08T18:30:49.900Z,974.591
2018-12-08T18:32:49.958Z,974.564
2018-12-08T18:34:50.211Z,974.534
2018-12-08T18:36:50.387Z,974.533
2018-12-08T18:38:50.372Z,974.499
2018-12-08T18:40:50.388Z,974.490
2018-12-08T18:42:50.433Z,974.485
2018-12-08T18:44:50.408Z,974.477
2018-12-08T18:46:49.635Z,974.433
2018-12-08T18:48:50.607Z,974.396
2018-12-08T18:50:49.664Z,974.377
2018-12-08T18:52:49.649Z,974.314
2018-12-08T18:54:49.700Z,974.296
2018-12-08T18:56:49.912Z,974.249
2018-12-08T18:58:49.854Z,974.241
2018-12-08T19:00:49.879Z,974.227
2018-12-08T19:02:49.958Z,974.166
2018-12-08T19:04:50.241Z,974.153
2018-12-08T19:06:50.391Z,974.138
2018-12-08T19:08:50.404Z,974.112
2018-12-08T19:10:50.378Z,974.106
2018-12-08T19:12:50.444Z,974.069
2018-12-08T19:14:50.452Z,974.051
2018-12-08T19:16:49.781Z,974.005
2018-12-08T19:18:49.954Z,973.993
2018-12-08T19:20:49.969Z,973.902
2018-12-08T19:22:49.923Z,973.877
2018-12-08T19:24:49.914Z,973.792
2018-12-08T19:26:50.153Z,973.790
2018-12-08T19:28:50.133Z,973.778
2018-12-08T19:30:50.164Z,973.738
2018-12-08T19:32:50.138Z,973.695
2018-12-08T19:34:50.518Z,973.662
2018-12-08T19:36:49.794Z,973.630
2018-12-08T19:38:49.950Z,973.599
2018-12-08T19:40:49.973Z,973.583
2018-12-08T19:42:49.967Z,973.546
2018-12-08T19:44:50.017Z,973.513
2018-12-08T19:46:50.187Z,973.463
2018-12-08T19:48:50.227Z,973.438
2018-12-08T19:50:50.235Z,973.422
2018-12-08T19:52:50.205Z,973.337
2018-12-08T19:54:50.229Z,973.242
2018-12-08T19:56:50.438Z,973.218
2018-12-08T19:58:50.436Z,973.165
2018-12-08T20:00:50.431Z,973.168
2018-12-08T20:02:50.480Z,973.141
2018-12-08T20:04:49.943Z,973.140
2018-12-08T20:06:50.165Z,973.116
2018-12-08T20:08:50.135Z,973.038
2018-12-08T20:10:50.151Z,972.996
2018-12-08T20:12:50.143Z,972.890
2018-12-08T20:14:50.275Z,972.874
2018-12-08T20:16:49.631Z,972.829
2018-12-08T20:18:49.761Z,972.806
2018-12-08T20:20:49.812Z,972.806
2018-12-08T20:22:49.906Z,972.731
2018-12-08T20:24:49.922Z,972.695
2018-12-08T20:26:50.129Z,972.653
2018-12-08T20:28:50.315Z,972.607
2018-12-08T20:30:50.304Z,972.498
2018-12-08T20:32:50.376Z,972.450
2018-12-08T20:34:50.281Z,972.415
2018-12-08T20:36:49.632Z,972.401
2018-12-08T20:38:49.669Z,972.329
2018-12-08T20:40:49.706Z,972.309
2018-12-08T20:42:49.647Z,972.261
2018-12-08T20:44:49.679Z,972.261
2018-12-08T20:46:49.930Z,972.197
2018-12-08T20:48:49.930Z,972.154
2018-12-08T20:50:49.917Z,972.171
2018-12-08T20:52:49.896Z,972.112
2018-12-08T20:54:49.904Z,972.112
2018-12-08T20:56:50.138Z,972.112
2018-12-08T20:58:50.208Z,971.945
2018-12-08T21:00:50.286Z,971.873
2018-12-08T21:02:50.318Z,971.823
2018-12-08T21:04:49.649Z,971.764
2018-12-08T21:06:49.848Z,971.739
2018-12-08T21:08:49.855Z,971.699
2018-12-08T21:10:49.884Z,971.646
2018-12-08T21:12:49.913Z,971.571
2018-12-08T21:14:49.878Z,971.506
2018-12-08T21:16:50.112Z,971.453
2018-12-08T21:18:50.089Z,971.417
2018-12-08T21:20:50.030Z,971.383
2018-12-08T21:22:50.012Z,971.383
2018-12-08T21:24:50.025Z,971.269
2018-12-08T21:26:51.479Z,971.195
2018-12-08T21:28:50.454Z,971.184
2018-12-08T21:30:50.417Z,971.059
2018-12-08T21:32:50.394Z,971.019
2018-12-08T21:34:50.035Z,970.970
2018-12-08T21:36:50.211Z,970.952
2018-12-08T21:38:50.215Z,970.900
2018-12-08T21:40:50.243Z,970.861
2018-12-08T21:42:50.350Z,970.810
2018-12-08T21:44:50.385Z,970.772
2018-12-08T21:46:49.636Z,970.667
2018-12-08T21:48:49.706Z,970.625
2018-12-08T21:50:49.765Z,970.518
2018-12-08T21:52:49.871Z,970.452
2018-12-08T21:54:49.901Z,970.359
2018-12-08T21:56:50.054Z,970.286
2018-12-08T21:58:50.145Z,970.216
2018-12-08T22:00:50.096Z,970.216
2018-12-08T22:02:50.127Z,970.103
2018-12-08T22:04:50.366Z,970.082
2018-12-08T22:06:50.451Z,970.064
2018-12-08T22:08:50.584Z,970.012
2018-12-08T22:10:50.633Z,969.975
2018-12-08T22:12:49.643Z,969.935
2018-12-08T22:14:49.880Z,969.935
2018-12-08T22:16:49.990Z,969.854
2018-12-08T22:18:50.054Z,969.852
2018-12-08T22:20:50.091Z,969.832
2018-12-08T22:22:50.093Z,969.832
2018-12-08T22:24:50.063Z,969.705
2018-12-08T22:26:50.224Z,969.678
2018-12-08T22:28:50.282Z,969.672
2018-12-08T22:30:50.275Z,969.603
2018-12-08T22:32:50.277Z,969.557
2018-12-08T22:34:49.775Z,969.556
2018-12-08T22:36:50.183Z,969.442
2018-12-08T22:38:50.145Z,969.202
2018-12-08T22:40:50.212Z,969.244
2018-12-08T22:42:50.195Z,969.234
2018-12-08T22:44:50.202Z,969.216
2018-12-08T22:46:50.360Z,969.151
2018-12-08T22:48:50.362Z,969.101
2018-12-08T22:50:50.426Z,968.994
2018-12-08T22:52:50.429Z,968.997
2018-12-08T22:54:50.547Z,968.981
2018-12-08T22:56:49.756Z,968.910
2018-12-08T22:58:49.899Z,968.889
2018-12-08T23:00:49.920Z,968.833
2018-12-08T23:02:50.026Z,968.669
2018-12-08T23:04:50.376Z,968.616
2018-12-08T23:06:49.734Z,968.615
2018-12-08T23:08:49.761Z,968.568
2018-12-08T23:10:49.802Z,968.536
2018-12-08T23:12:49.980Z,968.498
2018-12-08T23:14:50.055Z,968.428
2018-12-08T23:16:50.368Z,968.362
2018-12-08T23:18:50.373Z,968.295
2018-12-08T23:20:50.464Z,968.212
2018-12-08T23:22:50.528Z,968.218
2018-12-08T23:24:50.569Z,968.164
2018-12-08T23:26:49.653Z,968.164
2018-12-08T23:28:49.623Z,968.123
2018-12-08T23:30:49.712Z,968.090
2018-12-08T23:32:49.708Z,967.999
2018-12-08T23:34:50.231Z,967.940
2018-12-08T23:36:50.388Z,967.857
2018-12-08T23:38:50.448Z,967.745
2018-12-08T23:40:50.432Z,967.670
2018-12-08T23:42:50.576Z,967.683
2018-12-08T23:44:49.619Z,967.655
2018-12-08T23:46:49.812Z,967.637
2018-12-08T23:48:49.805Z,967.626
2018-12-08T23:50:49.829Z,967.578
2018-12-08T23:52:49.905Z,967.564
2018-12-08T23:54:49.912Z,967.445
2018-12-08T23:56:50.164Z,967.408
2018-12-08T23:58:50.153Z,967.269
